Riccall, United Kingdom
Current Conditions -  °F | °C
As of 12:50 AM on Tuesday 25 Nov 2014 (Local Time) from EGXU Reporting Station
Overcast Overcast  
Wind Chill: 34°   Ceiling: 19000
Heat Index: 37°   Visibility: 3mi
Dew Point: 36°   Wind: 5mph
Humidity: 93%   Direction: 100°E
Pressure: 30.3"   Gusts: NA
Location:  53.83°N, 1.06°W
Report Text: EGXU 250050Z AUTO 10004KT 5000 // OVC190/// 03/02 Q1026
Loading
Personal Weather Stations






























Interactive Weather Map New forecast layout! Learn more

10-Day Weather Forecast

Advertisements
Track Severe Weather on mobile